Time,TemperatureF,DewpointF,PressureIn,WindDirection,WindDirectionDegrees,WindSpeedMPH,WindSpeedGustMPH,Humidity,HourlyPrecipIn,Conditions,Clouds,dailyrainin,SoftwareType,DateUTC
2013-01-12 00:01:00,59.0,58.2,30.13,West,260,0.0,0.0,97,0.00,,,0.03,Wunderground v.1.13,2013-01-12 05:01:00,
2013-01-12 00:02:00,59.0,58.2,30.13,West,260,0.0,0.0,97,0.00,,,0.00,Wunderground v.1.13,2013-01-12 05:02:00,
2013-01-12 00:04:00,59.0,58.2,30.13,West,260,0.0,0.0,97,0.00,,,0.00,Wunderground v.1.13,2013-01-12 05:04:00,
2013-01-12 00:08:00,59.0,58.2,30.13,West,260,0.0,0.0,97,0.00,,,0.00,Wunderground v.1.13,2013-01-12 05:08:00,
2013-01-12 00:14:00,59.0,58.2,30.13,West,260,0.0,0.0,97,0.00,,,0.00,Wunderground v.1.13,2013-01-12 05:14:00,
2013-01-12 00:19:00,59.0,58.2,30.13,West,260,0.0,0.0,97,0.00,,,0.00,Wunderground v.1.13,2013-01-12 05:19:00,
2013-01-12 00:24:00,59.0,58.2,30.13,West,259,0.0,0.0,97,0.00,,,0.00,Wunderground v.1.13,2013-01-12 05:24:00,
2013-01-12 00:29:00,59.0,58.2,30.13,West,260,0.0,0.0,97,0.00,,,0.00,Wunderground v.1.13,2013-01-12 05:29:00,
2013-01-12 00:35:00,59.0,58.2,30.13,West,260,0.0,0.0,97,0.00,,,0.00,Wunderground v.1.13,2013-01-12 05:35:00,
2013-01-12 00:40:00,59.0,58.2,30.13,West,260,0.0,0.0,97,0.00,,,0.00,Wunderground v.1.13,2013-01-12 05:40:00,
2013-01-12 00:45:00,59.0,58.2,30.13,West,260,0.0,0.0,97,0.00,,,0.00,Wunderground v.1.13,2013-01-12 05:45:00,
2013-01-12 00:50:00,59.0,58.2,30.13,West,260,0.0,0.0,97,0.00,,,0.00,Wunderground v.1.13,2013-01-12 05:50:00,
2013-01-12 00:55:00,59.0,58.2,30.13,West,260,0.0,0.0,97,0.00,,,0.00,Wunderground v.1.13,2013-01-12 05:55:00,
2013-01-12 01:01:00,59.0,58.2,30.12,West,260,0.0,0.0,97,0.00,,,0.00,Wunderground v.1.13,2013-01-12 06:01:00,
2013-01-12 01:06:00,58.9,58.1,30.13,West,260,0.0,0.0,97,0.00,,,0.00,Wunderground v.1.13,2013-01-12 06:06:00,
2013-01-12 01:12:00,58.7,57.9,30.13,West,260,0.0,0.0,97,0.00,,,0.00,Wunderground v.1.13,2013-01-12 06:12:00,
2013-01-12 01:17:00,58.6,57.8,30.12,West,260,0.0,0.0,97,0.00,,,0.00,Wunderground v.1.13,2013-01-12 06:17:00,
2013-01-12 01:22:00,58.5,57.7,30.12,West,260,0.0,0.0,97,0.00,,,0.00,Wunderground v.1.13,2013-01-12 06:22:00,
2013-01-12 01:28:00,58.4,57.6,30.12,West,260,0.0,0.0,97,0.00,,,0.00,Wunderground v.1.13,2013-01-12 06:28:00,
2013-01-12 01:33:00,58.2,57.4,30.12,West,260,0.0,0.0,97,0.00,,,0.00,Wunderground v.1.13,2013-01-12 06:33:00,
2013-01-12 01:38:00,58.2,57.4,30.12,West,260,0.0,0.0,97,0.00,,,0.00,Wunderground v.1.13,2013-01-12 06:38:00,
2013-01-12 01:43:00,58.3,57.5,30.12,West,260,0.0,0.0,97,0.00,,,0.00,Wunderground v.1.13,2013-01-12 06:43:00,
2013-01-12 01:48:00,58.4,57.6,30.13,West,260,0.0,0.0,97,0.00,,,0.00,Wunderground v.1.13,2013-01-12 06:48:00,
2013-01-12 01:54:00,58.5,57.7,30.12,West,260,0.0,0.0,97,0.00,,,0.00,Wunderground v.1.13,2013-01-12 06:54:00,
2013-01-12 01:59:00,58.7,57.9,30.13,West,260,0.0,0.0,97,0.00,,,0.00,Wunderground v.1.13,2013-01-12 06:59:00,
2013-01-12 02:04:00,58.7,57.9,30.12,West,259,0.0,0.0,97,0.00,,,0.00,Wunderground v.1.13,2013-01-12 07:04:00,
2013-01-12 02:09:00,58.7,57.9,30.13,West,260,0.0,0.0,97,0.00,,,0.00,Wunderground v.1.13,2013-01-12 07:09:00,
2013-01-12 02:14:00,58.7,57.9,30.13,West,260,0.0,0.0,97,0.00,,,0.00,Wunderground v.1.13,2013-01-12 07:14:00,
2013-01-12 02:20:00,58.7,57.9,30.12,West,260,0.0,0.0,97,0.00,,,0.00,Wunderground v.1.13,2013-01-12 07:20:00,
2013-01-12 02:25:00,58.6,57.8,30.12,West,260,0.0,0.0,97,0.00,,,0.00,Wunderground v.1.13,2013-01-12 07:25:00,
2013-01-12 02:30:00,58.6,57.8,30.12,West,260,0.0,0.0,97,0.00,,,0.00,Wunderground v.1.13,2013-01-12 07:30:00,
2013-01-12 02:35:00,58.6,57.8,30.13,West,260,0.0,0.0,97,0.00,,,0.00,Wunderground v.1.13,2013-01-12 07:35:00,
2013-01-12 02:40:00,58.5,57.7,30.13,West,260,0.0,0.0,97,0.00,,,0.00,Wunderground v.1.13,2013-01-12 07:40:00,
2013-01-12 02:46:00,58.5,57.7,30.13,West,260,0.0,0.0,97,0.00,,,0.00,Wunderground v.1.13,2013-01-12 07:46:00,
2013-01-12 02:51:00,58.4,57.6,30.13,West,260,0.0,0.0,97,0.00,,,0.00,Wunderground v.1.13,2013-01-12 07:51:00,
2013-01-12 02:56:00,58.4,57.6,30.13,West,260,0.0,0.0,97,0.00,,,0.00,Wunderground v.1.13,2013-01-12 07:56:00,
2013-01-12 03:01:00,58.4,57.6,30.13,West,260,0.0,0.0,97,0.00,,,0.00,Wunderground v.1.13,2013-01-12 08:01:00,
2013-01-12 03:07:00,58.5,57.7,30.13,West,260,0.0,0.0,97,0.00,,,0.00,Wunderground v.1.13,2013-01-12 08:07:00,
2013-01-12 03:12:00,58.5,57.7,30.13,West,260,0.0,0.0,97,0.00,,,0.00,Wunderground v.1.13,2013-01-12 08:12:00,
2013-01-12 03:17:00,58.5,57.7,30.13,West,260,0.0,0.0,97,0.00,,,0.00,Wunderground v.1.13,2013-01-12 08:17:00,
2013-01-12 03:22:00,58.4,57.6,30.13,West,259,0.0,0.0,97,0.00,,,0.00,Wunderground v.1.13,2013-01-12 08:22:00,
2013-01-12 03:27:00,58.4,57.6,30.13,West,260,0.0,0.0,97,0.00,,,0.00,Wunderground v.1.13,2013-01-12 08:27:00,
2013-01-12 03:32:00,58.3,57.5,30.13,West,260,0.0,0.0,97,0.00,,,0.00,Wunderground v.1.13,2013-01-12 08:32:00,
2013-01-12 03:38:00,58.3,57.5,30.13,West,260,0.0,0.0,97,0.00,,,0.00,Wunderground v.1.13,2013-01-12 08:38:00,
2013-01-12 03:43:00,58.2,57.4,30.13,West,259,0.0,0.0,97,0.00,,,0.00,Wunderground v.1.13,2013-01-12 08:43:00,
2013-01-12 03:49:00,58.2,57.4,30.13,West,260,0.0,0.0,97,0.00,,,0.00,Wunderground v.1.13,2013-01-12 08:49:00,
2013-01-12 03:54:00,58.2,57.4,30.13,West,260,0.0,0.0,97,0.00,,,0.00,Wunderground v.1.13,2013-01-12 08:54:00,
2013-01-12 03:59:00,58.1,57.3,30.13,West,260,0.0,0.0,97,0.00,,,0.00,Wunderground v.1.13,2013-01-12 08:59:00,
2013-01-12 04:04:00,58.1,57.3,30.13,West,260,0.0,0.0,97,0.00,,,0.00,Wunderground v.1.13,2013-01-12 09:04:00,
2013-01-12 04:09:00,58.1,57.3,30.13,West,259,0.0,0.0,97,0.00,,,0.00,Wunderground v.1.13,2013-01-12 09:09:00,
2013-01-12 04:15:00,58.0,57.2,30.12,West,260,0.0,0.0,97,0.00,,,0.00,Wunderground v.1.13,2013-01-12 09:15:00,
2013-01-12 04:20:00,57.8,57.0,30.12,West,260,0.0,0.0,97,0.00,,,0.00,Wunderground v.1.13,2013-01-12 09:20:00,
2013-01-12 04:25:00,57.7,56.9,30.12,West,259,0.0,0.0,97,0.00,,,0.00,Wunderground v.1.13,2013-01-12 09:25:00,
2013-01-12 04:31:00,57.7,56.9,30.12,West,260,0.0,0.0,97,0.00,,,0.00,Wunderground v.1.13,2013-01-12 09:31:00,
2013-01-12 04:36:00,57.7,56.9,30.12,West,260,0.0,0.0,97,0.00,,,0.00,Wunderground v.1.13,2013-01-12 09:36:00,
2013-01-12 04:41:00,57.6,56.8,30.12,West,260,0.0,0.0,97,0.00,,,0.00,Wunderground v.1.13,2013-01-12 09:41:00,
2013-01-12 04:46:00,57.5,56.7,30.12,West,260,0.0,0.0,97,0.00,,,0.00,Wunderground v.1.13,2013-01-12 09:46:00,
2013-01-12 04:51:00,57.3,56.5,30.12,West,260,0.0,0.0,97,0.00,,,0.00,Wunderground v.1.13,2013-01-12 09:51:00,
2013-01-12 04:57:00,57.3,56.5,30.12,West,260,0.0,0.0,97,0.00,,,0.00,Wunderground v.1.13,2013-01-12 09:57:00,
2013-01-12 05:02:00,57.3,56.5,30.12,West,260,0.0,1.0,97,0.00,,,0.00,Wunderground v.1.13,2013-01-12 10:02:00,
2013-01-12 05:08:00,57.2,56.4,30.12,West,260,0.0,0.0,97,0.00,,,0.00,Wunderground v.1.13,2013-01-12 10:08:00,
2013-01-12 05:13:00,57.2,56.4,30.12,West,260,0.0,0.0,97,0.00,,,0.00,Wunderground v.1.13,2013-01-12 10:13:00,
2013-01-12 05:18:00,57.2,56.6,30.12,West,260,0.0,0.0,98,0.00,,,0.00,Wunderground v.1.13,2013-01-12 10:18:00,
2013-01-12 05:24:00,57.2,56.6,30.12,West,260,0.0,0.0,98,0.00,,,0.00,Wunderground v.1.13,2013-01-12 10:24:00,
2013-01-12 05:29:00,57.2,56.6,30.13,West,259,0.0,0.0,98,0.00,,,0.00,Wunderground v.1.13,2013-01-12 10:29:00,
2013-01-12 05:34:00,57.2,56.6,30.12,West,260,0.0,0.0,98,0.00,,,0.00,Wunderground v.1.13,2013-01-12 10:34:00,
2013-01-12 05:39:00,57.2,56.6,30.12,West,260,0.0,0.0,98,0.00,,,0.00,Wunderground v.1.13,2013-01-12 10:39:00,
2013-01-12 05:44:00,57.1,56.5,30.13,West,260,0.0,0.0,98,0.00,,,0.00,Wunderground v.1.13,2013-01-12 10:44:00,
2013-01-12 05:49:00,57.0,56.4,30.13,West,260,0.0,0.0,98,0.00,,,0.00,Wunderground v.1.13,2013-01-12 10:49:00,
2013-01-12 05:55:00,57.0,56.4,30.13,West,259,0.0,0.0,98,0.00,,,0.00,Wunderground v.1.13,2013-01-12 10:55:00,
2013-01-12 06:00:00,56.9,56.1,30.13,West,259,0.0,0.0,97,0.00,,,0.00,Wunderground v.1.13,2013-01-12 11:00:00,
2013-01-12 06:05:00,56.8,56.0,30.13,West,260,0.0,0.0,97,0.00,,,0.00,Wunderground v.1.13,2013-01-12 11:05:00,
2013-01-12 06:10:00,56.6,55.8,30.13,West,260,0.0,0.0,97,0.00,,,0.00,Wunderground v.1.13,2013-01-12 11:10:00,
2013-01-12 06:16:00,56.5,55.7,30.13,West,259,0.0,0.0,97,0.00,,,0.00,Wunderground v.1.13,2013-01-12 11:16:00,
2013-01-12 06:21:00,56.5,55.7,30.13,West,260,0.0,0.0,97,0.00,,,0.00,Wunderground v.1.13,2013-01-12 11:21:00,
2013-01-12 06:26:00,56.5,55.9,30.13,West,260,0.0,0.0,98,0.00,,,0.00,Wunderground v.1.13,2013-01-12 11:26:00,
2013-01-12 06:31:00,56.5,55.9,30.13,West,260,0.0,0.0,98,0.00,,,0.00,Wunderground v.1.13,2013-01-12 11:31:00,
2013-01-12 06:37:00,56.5,55.9,30.13,West,260,0.0,0.0,98,0.00,,,0.00,Wunderground v.1.13,2013-01-12 11:37:00,
2013-01-12 06:42:00,56.6,56.0,30.13,West,260,0.0,0.0,98,0.00,,,0.00,Wunderground v.1.13,2013-01-12 11:42:00,
2013-01-12 06:47:00,56.6,56.0,30.13,West,259,0.0,0.0,98,0.00,,,0.00,Wunderground v.1.13,2013-01-12 11:47:00,
2013-01-12 06:52:00,56.6,56.0,30.14,West,259,0.0,0.0,98,0.00,,,0.00,Wunderground v.1.13,2013-01-12 11:52:00,
2013-01-12 06:57:00,56.6,56.0,30.14,West,259,0.0,0.0,98,0.00,,,0.00,Wunderground v.1.13,2013-01-12 11:57:00,
2013-01-12 07:02:00,56.6,56.0,30.14,West,260,0.0,0.0,98,0.00,,,0.00,Wunderground v.1.13,2013-01-12 12:02:00,
2013-01-12 07:07:00,56.5,55.9,30.14,West,260,0.0,0.0,98,0.00,,,0.00,Wunderground v.1.13,2013-01-12 12:07:00,
2013-01-12 07:13:00,56.5,55.9,30.14,West,259,0.0,3.0,98,0.00,,,0.00,Wunderground v.1.13,2013-01-12 12:13:00,
2013-01-12 07:18:00,56.6,56.0,30.14,West,259,0.0,0.0,98,0.00,,,0.00,Wunderground v.1.13,2013-01-12 12:18:00,
2013-01-12 07:23:00,56.8,56.2,30.15,West,259,0.0,0.0,98,0.00,,,0.00,Wunderground v.1.13,2013-01-12 12:23:00,
2013-01-12 07:29:00,56.8,56.2,30.15,West,259,0.0,0.0,98,0.00,,,0.00,Wunderground v.1.13,2013-01-12 12:29:00,
2013-01-12 07:34:00,56.8,56.2,30.15,West,259,0.0,0.0,98,0.00,,,0.00,Wunderground v.1.13,2013-01-12 12:34:00,
2013-01-12 07:39:00,56.8,56.2,30.15,West,259,0.0,0.0,98,0.00,,,0.00,Wunderground v.1.13,2013-01-12 12:39:00,
2013-01-12 07:44:00,56.8,56.2,30.15,West,259,0.0,0.0,98,0.00,,,0.00,Wunderground v.1.13,2013-01-12 12:44:00,
2013-01-12 07:50:00,56.8,56.2,30.16,West,259,0.0,0.0,98,0.00,,,0.00,Wunderground v.1.13,2013-01-12 12:50:00,
2013-01-12 07:55:00,56.7,56.1,30.16,West,259,0.0,0.0,98,0.00,,,0.00,Wunderground v.1.13,2013-01-12 12:55:00,
2013-01-12 08:00:00,56.7,56.1,30.16,West,259,0.0,0.0,98,0.00,,,0.00,Wunderground v.1.13,2013-01-12 13:00:00,
2013-01-12 08:05:00,56.7,56.1,30.16,West,259,0.0,0.0,98,0.00,,,0.00,Wunderground v.1.13,2013-01-12 13:05:00,
2013-01-12 08:10:00,56.7,56.1,30.16,West,259,0.0,0.0,98,0.00,,,0.00,Wunderground v.1.13,2013-01-12 13:10:00,
2013-01-12 08:15:00,56.7,56.1,30.16,West,259,0.0,0.0,98,0.00,,,0.00,Wunderground v.1.13,2013-01-12 13:15:00,
2013-01-12 08:20:00,56.6,56.0,30.15,West,260,0.0,0.0,98,0.00,,,0.00,Wunderground v.1.13,2013-01-12 13:20:00,
2013-01-12 08:25:00,56.5,55.9,30.16,West,259,0.0,0.0,98,0.00,,,0.00,Wunderground v.1.13,2013-01-12 13:25:00,
2013-01-12 08:31:00,56.3,55.5,30.16,West,259,0.0,0.0,97,0.00,,,0.00,Wunderground v.1.13,2013-01-12 13:31:00,
2013-01-12 08:36:00,56.2,55.4,30.17,West,259,0.0,0.0,97,0.00,,,0.00,Wunderground v.1.13,2013-01-12 13:36:00,
2013-01-12 08:41:00,56.2,55.6,30.17,West,259,0.0,0.0,98,0.00,,,0.00,Wunderground v.1.13,2013-01-12 13:41:00,
2013-01-12 08:47:00,56.2,55.6,30.17,WNW,291,0.0,0.0,98,0.00,,,0.00,Wunderground v.1.13,2013-01-12 13:47:00,
2013-01-12 08:52:00,56.4,55.8,30.18,NW,312,0.0,0.0,98,0.00,,,0.00,Wunderground v.1.13,2013-01-12 13:52:00,
2013-01-12 08:57:00,56.9,56.3,30.18,NW,312,0.0,0.0,98,0.00,,,0.00,Wunderground v.1.13,2013-01-12 13:57:00,
2013-01-12 09:02:00,57.4,56.8,30.18,NW,312,0.0,0.0,98,0.00,,,0.00,Wunderground v.1.13,2013-01-12 14:02:00,
2013-01-12 09:08:00,57.8,57.2,30.18,NW,312,0.0,0.0,98,0.00,,,0.00,Wunderground v.1.13,2013-01-12 14:08:00,
2013-01-12 09:13:00,58.2,57.6,30.18,NW,312,0.0,0.0,98,0.00,,,0.00,Wunderground v.1.13,2013-01-12 14:13:00,
2013-01-12 09:19:00,58.5,57.9,30.18,NW,312,0.0,0.0,98,0.00,,,0.00,Wunderground v.1.13,2013-01-12 14:19:00,
2013-01-12 09:24:00,59.0,58.4,30.19,NW,312,0.0,0.0,98,0.00,,,0.00,Wunderground v.1.13,2013-01-12 14:24:00,
2013-01-12 09:30:00,59.0,58.4,30.19,NW,312,0.0,0.0,98,0.00,,,0.00,Wunderground v.1.13,2013-01-12 14:30:00,
2013-01-12 09:35:00,59.0,58.4,30.18,NW,312,0.0,0.0,98,0.00,,,0.00,Wunderground v.1.13,2013-01-12 14:35:00,
2013-01-12 09:40:00,59.4,58.8,30.18,NW,312,0.0,0.0,98,0.00,,,0.00,Wunderground v.1.13,2013-01-12 14:40:00,
2013-01-12 09:45:00,60.1,59.8,30.18,NW,312,0.0,0.0,99,0.00,,,0.00,Wunderground v.1.13,2013-01-12 14:45:00,
2013-01-12 09:51:00,60.6,60.3,30.18,NW,312,0.0,0.0,99,0.00,,,0.00,Wunderground v.1.13,2013-01-12 14:51:00,
2013-01-12 09:56:00,60.9,60.6,30.18,NW,312,0.0,0.0,99,0.00,,,0.00,Wunderground v.1.13,2013-01-12 14:56:00,
2013-01-12 10:01:00,61.2,60.9,30.18,NW,312,0.0,0.0,99,0.00,,,0.00,Wunderground v.1.13,2013-01-12 15:01:00,
2013-01-12 10:06:00,61.8,61.5,30.18,NW,312,0.0,0.0,99,0.00,,,0.00,Wunderground v.1.13,2013-01-12 15:06:00,
2013-01-12 10:11:00,62.9,62.6,30.18,NW,312,0.0,0.0,99,0.00,,,0.00,Wunderground v.1.13,2013-01-12 15:11:00,
2013-01-12 10:17:00,63.5,63.2,30.17,NW,312,0.0,0.0,99,0.00,,,0.00,Wunderground v.1.13,2013-01-12 15:17:00,
2013-01-12 10:22:00,63.9,63.6,30.17,NW,312,0.0,2.0,99,0.00,,,0.00,Wunderground v.1.13,2013-01-12 15:22:00,
2013-01-12 10:27:00,64.3,64.0,30.17,NW,312,0.0,1.0,99,0.00,,,0.00,Wunderground v.1.13,2013-01-12 15:27:00,
2013-01-12 10:32:00,64.8,64.5,30.17,NW,312,0.0,0.0,99,0.00,,,0.00,Wunderground v.1.13,2013-01-12 15:32:00,
2013-01-12 10:37:00,65.4,64.8,30.17,NW,312,0.0,0.0,98,0.00,,,0.00,Wunderground v.1.13,2013-01-12 15:37:00,
2013-01-12 10:43:00,66.1,65.5,30.17,NNE,15,0.0,0.0,98,0.00,,,0.00,Wunderground v.1.13,2013-01-12 15:43:00,
2013-01-12 10:48:00,66.8,65.9,30.17,NNE,15,0.0,2.0,97,0.00,,,0.00,Wunderground v.1.13,2013-01-12 15:48:00,
2013-01-12 10:53:00,67.3,66.1,30.17,WNW,300,0.0,4.0,96,0.00,,,0.00,Wunderground v.1.13,2013-01-12 15:53:00,
2013-01-12 10:58:00,67.9,66.1,30.16,WNW,300,0.0,0.0,94,0.00,,,0.00,Wunderground v.1.13,2013-01-12 15:58:00,
2013-01-12 11:03:00,68.5,66.4,30.16,WSW,257,1.0,6.0,93,0.00,,,0.00,Wunderground v.1.13,2013-01-12 16:03:00,
2013-01-12 11:08:00,69.0,65.9,30.16,WSW,258,3.0,6.0,90,0.00,,,0.00,Wunderground v.1.13,2013-01-12 16:08:00,
2013-01-12 11:13:00,69.5,65.8,30.16,SW,229,5.0,7.0,88,0.00,,,0.00,Wunderground v.1.13,2013-01-12 16:13:00,
2013-01-12 11:19:00,69.8,65.4,30.16,West,261,5.0,6.0,86,0.00,,,0.00,Wunderground v.1.13,2013-01-12 16:19:00,
2013-01-12 11:24:00,70.0,65.3,30.15,West,263,5.0,6.0,85,0.00,,,0.00,Wunderground v.1.13,2013-01-12 16:24:00,
2013-01-12 11:29:00,70.1,65.0,30.15,West,265,4.0,5.0,84,0.00,,,0.00,Wunderground v.1.13,2013-01-12 16:29:00,
2013-01-12 11:34:00,70.2,65.1,30.15,SSW,205,4.0,4.0,84,0.00,,,0.00,Wunderground v.1.13,2013-01-12 16:34:00,
2013-01-12 11:39:00,70.1,65.0,30.15,South,179,3.0,4.0,84,0.00,,,0.00,Wunderground v.1.13,2013-01-12 16:39:00,
2013-01-12 11:44:00,70.1,64.7,30.14,SSW,207,4.0,4.0,83,0.00,,,0.00,Wunderground v.1.13,2013-01-12 16:44:00,
2013-01-12 11:50:00,69.9,64.5,30.14,SSW,207,3.0,3.0,83,0.00,,,0.00,Wunderground v.1.13,2013-01-12 16:50:00,
2013-01-12 11:55:00,69.3,63.9,30.14,South,185,2.0,4.0,83,0.00,,,0.00,Wunderground v.1.13,2013-01-12 16:55:00,
2013-01-12 12:00:00,68.9,63.9,30.13,SSE,155,3.0,3.0,84,0.00,,,0.00,Wunderground v.1.13,2013-01-12 17:00:00,
2013-01-12 12:06:00,68.6,63.6,30.14,South,180,3.0,5.0,84,0.00,,,0.00,Wunderground v.1.13,2013-01-12 17:06:00,
2013-01-12 12:11:00,68.5,63.5,30.14,South,180,2.0,2.0,84,0.00,,,0.00,Wunderground v.1.13,2013-01-12 17:11:00,
2013-01-12 12:16:00,68.4,63.7,30.13,South,180,1.0,1.0,85,0.00,,,0.00,Wunderground v.1.13,2013-01-12 17:16:00,
2013-01-12 12:21:00,68.3,63.6,30.13,South,180,0.0,0.0,85,0.00,,,0.00,Wunderground v.1.13,2013-01-12 17:21:00,
2013-01-12 12:26:00,68.4,63.7,30.13,South,180,0.0,0.0,85,0.00,,,0.00,Wunderground v.1.13,2013-01-12 17:26:00,
2013-01-12 12:31:00,68.5,63.8,30.13,South,180,0.0,1.0,85,0.00,,,0.00,Wunderground v.1.13,2013-01-12 17:31:00,
2013-01-12 12:37:00,68.4,63.4,30.13,South,180,1.0,1.0,84,0.00,,,0.00,Wunderground v.1.13,2013-01-12 17:37:00,
2013-01-12 12:42:00,68.4,63.7,30.12,South,180,1.0,1.0,85,0.00,,,0.00,Wunderground v.1.13,2013-01-12 17:42:00,
2013-01-12 12:48:00,68.3,63.3,30.12,South,180,1.0,2.0,84,0.00,,,0.00,Wunderground v.1.13,2013-01-12 17:48:00,
2013-01-12 12:53:00,68.3,63.6,30.11,South,180,0.0,2.0,85,0.00,,,0.00,Wunderground v.1.13,2013-01-12 17:53:00,
2013-01-12 12:59:00,68.1,63.4,30.11,ESE,102,2.0,6.0,85,0.00,,,0.00,Wunderground v.1.13,2013-01-12 17:59:00,
2013-01-12 13:04:00,67.9,63.6,30.11,ESE,102,1.0,1.0,86,0.00,,,0.00,Wunderground v.1.13,2013-01-12 18:04:00,
2013-01-12 13:09:00,67.9,63.9,30.11,ESE,102,0.0,0.0,87,0.00,,,0.00,Wunderground v.1.13,2013-01-12 18:09:00,
2013-01-12 13:15:00,68.0,63.7,30.11,ESE,106,1.0,1.0,86,0.00,,,0.00,Wunderground v.1.13,2013-01-12 18:15:00,
2013-01-12 13:20:00,68.0,63.7,30.11,ESE,107,1.0,1.0,86,0.00,,,0.00,Wunderground v.1.13,2013-01-12 18:20:00,
2013-01-12 13:25:00,68.3,63.9,30.11,ESE,111,1.0,1.0,86,0.00,,,0.00,Wunderground v.1.13,2013-01-12 18:25:00,
2013-01-12 13:30:00,68.6,63.9,30.10,ESE,113,0.0,0.0,85,0.00,,,0.00,Wunderground v.1.13,2013-01-12 18:30:00,
2013-01-12 13:35:00,69.0,64.0,30.10,ESE,113,0.0,1.0,84,0.00,,,0.00,Wunderground v.1.13,2013-01-12 18:35:00,
2013-01-12 13:40:00,69.3,63.6,30.10,ESE,113,0.0,0.0,82,0.00,,,0.00,Wunderground v.1.13,2013-01-12 18:40:00,
2013-01-12 13:45:00,69.5,63.8,30.10,ESE,113,0.0,1.0,82,0.00,,,0.00,Wunderground v.1.13,2013-01-12 18:45:00,
2013-01-12 13:51:00,69.9,64.2,30.10,ESE,113,0.0,0.0,82,0.00,,,0.00,Wunderground v.1.13,2013-01-12 18:51:00,
2013-01-12 13:56:00,70.6,64.1,30.09,ESE,113,0.0,0.0,80,0.00,,,0.00,Wunderground v.1.13,2013-01-12 18:56:00,
2013-01-12 14:01:00,71.0,64.2,30.09,ESE,113,0.0,0.0,79,0.00,,,0.00,Wunderground v.1.13,2013-01-12 19:01:00,
2013-01-12 14:06:00,71.3,64.4,30.09,ESE,113,0.0,0.0,79,0.00,,,0.00,Wunderground v.1.13,2013-01-12 19:06:00,
2013-01-12 14:12:00,71.6,64.4,30.09,ESE,113,0.0,1.0,78,0.00,,,0.00,Wunderground v.1.13,2013-01-12 19:12:00,
2013-01-12 14:18:00,71.7,64.5,30.09,ESE,113,0.0,0.0,78,0.00,,,0.00,Wunderground v.1.13,2013-01-12 19:18:00,
2013-01-12 14:23:00,71.7,64.5,30.09,ESE,113,0.0,0.0,78,0.00,,,0.00,Wunderground v.1.13,2013-01-12 19:23:00,
2013-01-12 14:28:00,71.8,64.6,30.09,ESE,113,0.0,0.0,78,0.00,,,0.00,Wunderground v.1.13,2013-01-12 19:28:00,
2013-01-12 14:33:00,71.7,64.5,30.09,ESE,113,0.0,0.0,78,0.00,,,0.00,Wunderground v.1.13,2013-01-12 19:33:00,
2013-01-12 14:38:00,71.7,64.5,30.09,ESE,113,0.0,0.0,78,0.00,,,0.00,Wunderground v.1.13,2013-01-12 19:38:00,
2013-01-12 14:44:00,71.8,64.6,30.09,ESE,113,0.0,0.0,78,0.00,,,0.00,Wunderground v.1.13,2013-01-12 19:44:00,
2013-01-12 14:49:00,72.2,64.6,30.08,ESE,113,0.0,0.0,77,0.00,,,0.00,Wunderground v.1.13,2013-01-12 19:49:00,
2013-01-12 14:54:00,72.6,65.0,30.08,ESE,113,0.0,0.0,77,0.00,,,0.00,Wunderground v.1.13,2013-01-12 19:54:00,
2013-01-12 14:59:00,72.8,64.8,30.08,ESE,113,0.0,0.0,76,0.00,,,0.00,Wunderground v.1.13,2013-01-12 19:59:00,
2013-01-12 15:04:00,72.8,64.8,30.08,ESE,113,0.0,0.0,76,0.00,,,0.00,Wunderground v.1.13,2013-01-12 20:04:00,
2013-01-12 15:10:00,73.1,65.1,30.08,ESE,113,0.0,0.0,76,0.00,,,0.00,Wunderground v.1.13,2013-01-12 20:10:00,
2013-01-12 15:15:00,73.7,65.3,30.08,SE,133,1.0,1.0,75,0.00,,,0.00,Wunderground v.1.13,2013-01-12 20:15:00,
2013-01-12 15:20:00,73.5,64.7,30.08,SE,133,1.0,1.0,74,0.00,,,0.00,Wunderground v.1.13,2013-01-12 20:20:00,
2013-01-12 15:26:00,73.2,64.8,30.08,SE,133,1.0,1.0,75,0.00,,,0.00,Wunderground v.1.13,2013-01-12 20:26:00,
2013-01-12 15:31:00,73.1,64.7,30.08,SE,133,0.0,1.0,75,0.00,,,0.00,Wunderground v.1.13,2013-01-12 20:31:00,
2013-01-12 15:36:00,73.0,64.6,30.08,SE,133,0.0,0.0,75,0.00,,,0.00,Wunderground v.1.13,2013-01-12 20:36:00,
2013-01-12 15:41:00,72.9,64.5,30.09,SE,133,0.0,0.0,75,0.00,,,0.00,Wunderground v.1.13,2013-01-12 20:41:00,
2013-01-12 15:46:00,72.6,64.6,30.08,SE,133,0.0,1.0,76,0.00,,,0.00,Wunderground v.1.13,2013-01-12 20:46:00,
2013-01-12 15:52:00,72.5,64.9,30.08,SE,133,0.0,1.0,77,0.00,,,0.00,Wunderground v.1.13,2013-01-12 20:52:00,
2013-01-12 15:58:00,72.2,64.6,30.08,SE,133,0.0,0.0,77,0.00,,,0.00,Wunderground v.1.13,2013-01-12 20:58:00,
2013-01-12 16:03:00,72.1,64.5,30.08,SE,133,0.0,0.0,77,0.00,,,0.00,Wunderground v.1.13,2013-01-12 21:03:00,
2013-01-12 16:09:00,72.1,64.9,30.08,SE,133,0.0,0.0,78,0.00,,,0.00,Wunderground v.1.13,2013-01-12 21:09:00,
2013-01-12 16:14:00,71.9,64.7,30.08,SE,133,0.0,0.0,78,0.00,,,0.00,Wunderground v.1.13,2013-01-12 21:14:00,
2013-01-12 16:19:00,71.7,64.5,30.08,SE,133,0.0,0.0,78,0.00,,,0.00,Wunderground v.1.13,2013-01-12 21:19:00,
2013-01-12 16:24:00,71.6,64.4,30.08,SE,133,0.0,0.0,78,0.00,,,0.00,Wunderground v.1.13,2013-01-12 21:24:00,
2013-01-12 16:30:00,71.5,64.3,30.08,SE,133,0.0,0.0,78,0.00,,,0.00,Wunderground v.1.13,2013-01-12 21:30:00,
2013-01-12 16:35:00,71.3,64.8,30.08,SE,133,0.0,0.0,80,0.00,,,0.00,Wunderground v.1.13,2013-01-12 21:35:00,
2013-01-12 16:40:00,71.0,64.5,30.07,SE,133,0.0,0.0,80,0.00,,,0.00,Wunderground v.1.13,2013-01-12 21:40:00,
2013-01-12 16:45:00,70.8,64.3,30.07,SE,133,0.0,0.0,80,0.00,,,0.00,Wunderground v.1.13,2013-01-12 21:45:00,
2013-01-12 16:50:00,70.6,64.8,30.07,SE,133,0.0,0.0,82,0.00,,,0.00,Wunderground v.1.13,2013-01-12 21:50:00,
2013-01-12 16:56:00,70.4,64.6,30.07,SE,133,0.0,0.0,82,0.00,,,0.00,Wunderground v.1.13,2013-01-12 21:56:00,
2013-01-12 17:01:00,70.3,64.5,30.06,SE,133,0.0,0.0,82,0.00,,,0.00,Wunderground v.1.13,2013-01-12 22:01:00,
2013-01-12 17:06:00,70.2,64.4,30.06,SE,133,0.0,0.0,82,0.00,,,0.00,Wunderground v.1.13,2013-01-12 22:06:00,
2013-01-12 17:12:00,70.1,64.3,30.06,SE,133,0.0,0.0,82,0.00,,,0.00,Wunderground v.1.13,2013-01-12 22:12:00,
2013-01-12 17:17:00,70.0,64.2,30.06,SE,133,0.0,0.0,82,0.00,,,0.00,Wunderground v.1.13,2013-01-12 22:17:00,
2013-01-12 17:22:00,69.9,64.2,30.06,SE,133,0.0,0.0,82,0.00,,,0.00,Wunderground v.1.13,2013-01-12 22:22:00,
2013-01-12 17:27:00,69.7,64.0,30.07,SE,133,0.0,0.0,82,0.00,,,0.00,Wunderground v.1.13,2013-01-12 22:27:00,
2013-01-12 17:32:00,69.5,63.8,30.07,SE,133,0.0,0.0,82,0.00,,,0.00,Wunderground v.1.13,2013-01-12 22:32:00,
2013-01-12 17:38:00,69.3,63.9,30.07,SE,133,0.0,0.0,83,0.00,,,0.00,Wunderground v.1.13,2013-01-12 22:38:00,
2013-01-12 17:44:00,69.0,63.6,30.07,SE,133,0.0,0.0,83,0.00,,,0.00,Wunderground v.1.13,2013-01-12 22:44:00,
2013-01-12 17:49:00,68.6,63.2,30.07,SE,133,0.0,0.0,83,0.00,,,0.00,Wunderground v.1.13,2013-01-12 22:49:00,
2013-01-12 17:55:00,68.3,63.3,30.06,SE,133,0.0,0.0,84,0.00,,,0.00,Wunderground v.1.13,2013-01-12 22:55:00,
2013-01-12 18:00:00,67.8,62.8,30.06,SE,133,0.0,0.0,84,0.00,,,0.00,Wunderground v.1.13,2013-01-12 23:00:00,
2013-01-12 18:05:00,67.4,62.4,30.07,SE,133,0.0,0.0,84,0.00,,,0.00,Wunderground v.1.13,2013-01-12 23:05:00,
2013-01-12 18:10:00,67.0,62.0,30.07,SE,133,0.0,1.0,84,0.00,,,0.00,Wunderground v.1.13,2013-01-12 23:10:00,
2013-01-12 18:16:00,66.5,61.5,30.07,SE,133,0.0,0.0,84,0.00,,,0.00,Wunderground v.1.13,2013-01-12 23:16:00,
2013-01-12 18:21:00,66.1,61.5,30.07,SE,133,0.0,0.0,85,0.00,,,0.00,Wunderground v.1.13,2013-01-12 23:21:00,
2013-01-12 18:26:00,65.8,61.2,30.07,SE,133,0.0,0.0,85,0.00,,,0.00,Wunderground v.1.13,2013-01-12 23:26:00,
2013-01-12 18:33:00,65.4,61.1,30.07,SE,133,0.0,0.0,86,0.00,,,0.00,Wunderground v.1.13,2013-01-12 23:33:00,
2013-01-12 18:39:00,65.0,60.7,30.07,SE,133,0.0,0.0,86,0.00,,,0.00,Wunderground v.1.13,2013-01-12 23:39:00,
2013-01-12 18:44:00,64.7,60.4,30.07,SE,133,0.0,0.0,86,0.00,,,0.00,Wunderground v.1.13,2013-01-12 23:44:00,
2013-01-12 18:49:00,64.4,60.4,30.07,SE,133,0.0,0.0,87,0.00,,,0.00,Wunderground v.1.13,2013-01-12 23:49:00,
2013-01-12 18:55:00,64.0,60.1,30.07,SE,133,0.0,0.0,87,0.00,,,0.00,Wunderground v.1.13,2013-01-12 23:55:00,
2013-01-12 19:00:00,63.6,60.0,30.07,SE,133,0.0,0.0,88,0.00,,,0.00,Wunderground v.1.13,2013-01-13 00:00:00,
2013-01-12 19:05:00,63.3,59.7,30.07,SE,133,0.0,0.0,88,0.00,,,0.00,Wunderground v.1.13,2013-01-13 00:05:00,
2013-01-12 19:10:00,62.8,59.2,30.07,SE,133,0.0,0.0,88,0.00,,,0.00,Wunderground v.1.13,2013-01-13 00:10:00,
2013-01-12 19:16:00,62.4,58.8,30.07,SE,133,0.0,0.0,88,0.00,,,0.00,Wunderground v.1.13,2013-01-13 00:16:00,
2013-01-12 19:21:00,62.0,58.4,30.06,SE,133,0.0,0.0,88,0.00,,,0.00,Wunderground v.1.13,2013-01-13 00:21:00,
2013-01-12 19:26:00,61.6,58.3,30.06,SE,133,0.0,0.0,89,0.00,,,0.00,Wunderground v.1.13,2013-01-13 00:26:00,
2013-01-12 19:31:00,61.2,57.6,30.06,SE,133,0.0,0.0,88,0.00,,,0.00,Wunderground v.1.13,2013-01-13 00:31:00,
2013-01-12 19:37:00,60.8,57.2,30.06,SE,133,0.0,0.0,88,0.00,,,0.00,Wunderground v.1.13,2013-01-13 00:37:00,
2013-01-12 19:43:00,60.3,57.0,30.06,SE,133,0.0,0.0,89,0.00,,,0.00,Wunderground v.1.13,2013-01-13 00:43:00,
2013-01-12 19:49:00,59.8,56.6,30.06,SE,133,0.0,0.0,89,0.00,,,0.00,Wunderground v.1.13,2013-01-13 00:49:00,
2013-01-12 19:54:00,59.4,56.2,30.06,SE,133,0.0,0.0,89,0.00,,,0.00,Wunderground v.1.13,2013-01-13 00:54:00,
2013-01-12 20:00:00,59.0,56.1,30.06,SE,133,0.0,0.0,90,0.00,,,0.00,Wunderground v.1.13,2013-01-13 01:00:00,
2013-01-12 20:05:00,58.9,56.0,30.06,SE,133,0.0,0.0,90,0.00,,,0.00,Wunderground v.1.13,2013-01-13 01:05:00,
2013-01-12 20:10:00,58.5,55.6,30.06,SE,133,0.0,0.0,90,0.00,,,0.00,Wunderground v.1.13,2013-01-13 01:10:00,
2013-01-12 20:15:00,58.4,55.5,30.06,SE,133,0.0,0.0,90,0.00,,,0.00,Wunderground v.1.13,2013-01-13 01:15:00,
2013-01-12 20:20:00,58.2,55.6,30.06,SE,133,0.0,0.0,91,0.00,,,0.00,Wunderground v.1.13,2013-01-13 01:20:00,
2013-01-12 20:26:00,58.1,55.5,30.06,SE,133,0.0,0.0,91,0.00,,,0.00,Wunderground v.1.13,2013-01-13 01:26:00,
2013-01-12 20:32:00,58.0,55.7,30.06,SE,133,0.0,0.0,92,0.00,,,0.00,Wunderground v.1.13,2013-01-13 01:32:00,
2013-01-12 20:38:00,57.9,55.6,30.06,SE,133,0.0,0.0,92,0.00,,,0.00,Wunderground v.1.13,2013-01-13 01:38:00,
2013-01-12 20:43:00,57.8,55.5,30.06,SE,133,0.0,0.0,92,0.00,,,0.00,Wunderground v.1.13,2013-01-13 01:43:00,
2013-01-12 20:48:00,57.8,55.8,30.06,SE,133,0.0,0.0,93,0.00,,,0.00,Wunderground v.1.13,2013-01-13 01:48:00,
2013-01-12 20:54:00,57.8,55.8,30.06,SE,133,0.0,0.0,93,0.00,,,0.00,Wunderground v.1.13,2013-01-13 01:54:00,
2013-01-12 20:59:00,57.8,55.8,30.06,SE,133,0.0,0.0,93,0.00,,,0.00,Wunderground v.1.13,2013-01-13 01:59:00,
2013-01-12 21:04:00,57.8,55.8,30.05,SE,133,0.0,0.0,93,0.00,,,0.00,Wunderground v.1.13,2013-01-13 02:04:00,
2013-01-12 21:09:00,57.7,55.7,30.06,SE,133,0.0,0.0,93,0.00,,,0.00,Wunderground v.1.13,2013-01-13 02:09:00,
2013-01-12 21:15:00,57.7,55.7,30.06,SE,133,0.0,0.0,93,0.00,,,0.00,Wunderground v.1.13,2013-01-13 02:15:00,
2013-01-12 21:20:00,57.6,55.6,30.06,SE,133,0.0,0.0,93,0.00,,,0.00,Wunderground v.1.13,2013-01-13 02:20:00,
2013-01-12 21:25:00,57.6,55.9,30.06,SE,133,0.0,0.0,94,0.00,,,0.00,Wunderground v.1.13,2013-01-13 02:25:00,
2013-01-12 21:31:00,57.6,55.9,30.06,SE,133,0.0,0.0,94,0.00,,,0.00,Wunderground v.1.13,2013-01-13 02:31:00,
2013-01-12 21:36:00,57.5,55.8,30.05,SE,133,0.0,0.0,94,0.00,,,0.00,Wunderground v.1.13,2013-01-13 02:36:00,
2013-01-12 21:41:00,57.5,55.8,30.05,SE,133,0.0,0.0,94,0.00,,,0.00,Wunderground v.1.13,2013-01-13 02:41:00,
2013-01-12 21:46:00,57.3,55.6,30.06,SE,133,0.0,0.0,94,0.00,,,0.00,Wunderground v.1.13,2013-01-13 02:46:00,
2013-01-12 21:51:00,57.1,55.4,30.06,SE,133,0.0,0.0,94,0.00,,,0.00,Wunderground v.1.13,2013-01-13 02:51:00,
2013-01-12 21:57:00,57.0,55.3,30.06,SE,133,0.0,0.0,94,0.00,,,0.00,Wunderground v.1.13,2013-01-13 02:57:00,
2013-01-12 22:02:00,56.9,55.2,30.05,SE,133,0.0,0.0,94,0.00,,,0.00,Wunderground v.1.13,2013-01-13 03:02:00,
2013-01-12 22:07:00,56.7,55.0,30.05,SE,133,0.0,0.0,94,0.00,,,0.00,Wunderground v.1.13,2013-01-13 03:07:00,
2013-01-12 22:13:00,56.4,54.7,30.05,SE,133,0.0,0.0,94,0.00,,,0.00,Wunderground v.1.13,2013-01-13 03:13:00,
2013-01-12 22:18:00,56.2,54.5,30.05,SE,133,0.0,0.0,94,0.00,,,0.00,Wunderground v.1.13,2013-01-13 03:18:00,
2013-01-12 22:24:00,56.0,54.3,30.05,SE,133,0.0,0.0,94,0.00,,,0.00,Wunderground v.1.13,2013-01-13 03:24:00,
2013-01-12 22:29:00,55.8,54.1,30.05,SE,133,0.0,0.0,94,0.00,,,0.00,Wunderground v.1.13,2013-01-13 03:29:00,
2013-01-12 22:34:00,55.6,53.9,30.05,SE,133,0.0,0.0,94,0.00,,,0.00,Wunderground v.1.13,2013-01-13 03:34:00,
2013-01-12 22:39:00,55.5,53.8,30.05,SE,133,0.0,0.0,94,0.00,,,0.00,Wunderground v.1.13,2013-01-13 03:39:00,
2013-01-12 22:45:00,55.3,53.6,30.05,SE,133,0.0,0.0,94,0.00,,,0.00,Wunderground v.1.13,2013-01-13 03:45:00,
2013-01-12 22:50:00,55.1,53.4,30.04,SE,133,0.0,0.0,94,0.00,,,0.00,Wunderground v.1.13,2013-01-13 03:50:00,
2013-01-12 22:55:00,54.9,53.2,30.04,SE,133,0.0,0.0,94,0.00,,,0.00,Wunderground v.1.13,2013-01-13 03:55:00,
2013-01-12 23:00:00,54.7,53.0,30.04,SE,133,0.0,0.0,94,0.00,,,0.00,Wunderground v.1.13,2013-01-13 04:00:00,
2013-01-12 23:06:00,54.3,52.6,30.05,SE,133,0.0,0.0,94,0.00,,,0.00,Wunderground v.1.13,2013-01-13 04:06:00,
2013-01-12 23:12:00,54.1,52.4,30.05,SE,133,0.0,0.0,94,0.00,,,0.00,Wunderground v.1.13,2013-01-13 04:12:00,
2013-01-12 23:17:00,53.9,52.2,30.05,SE,133,0.0,0.0,94,0.00,,,0.00,Wunderground v.1.13,2013-01-13 04:17:00,
2013-01-12 23:22:00,53.7,52.0,30.05,SE,133,0.0,0.0,94,0.00,,,0.00,Wunderground v.1.13,2013-01-13 04:22:00,
2013-01-12 23:27:00,53.5,51.8,30.05,SE,133,0.0,0.0,94,0.00,,,0.00,Wunderground v.1.13,2013-01-13 04:27:00,
2013-01-12 23:32:00,53.3,51.6,30.05,SE,133,0.0,0.0,94,0.00,,,0.00,Wunderground v.1.13,2013-01-13 04:32:00,
2013-01-12 23:37:00,53.1,51.4,30.05,SE,133,0.0,0.0,94,0.00,,,0.00,Wunderground v.1.13,2013-01-13 04:37:00,
2013-01-12 23:43:00,52.9,51.2,30.05,SE,133,0.0,0.0,94,0.00,,,0.00,Wunderground v.1.13,2013-01-13 04:43:00,
2013-01-12 23:48:00,52.6,50.9,30.04,SE,133,0.0,0.0,94,0.00,,,0.00,Wunderground v.1.13,2013-01-13 04:48:00,
2013-01-12 23:54:00,52.3,50.6,30.05,SE,133,0.0,0.0,94,0.00,,,0.00,Wunderground v.1.13,2013-01-13 04:54:00,
2013-01-12 23:59:00,52.0,50.3,30.04,SE,133,0.0,0.0,94,0.00,,,0.00,Wunderground v.1.13,2013-01-13 04:59:00,